createdAt,value
2023-02-11T00:01:28.366Z,4.85
2023-02-11T00:03:56.402Z,5.03
2023-02-11T00:06:23.786Z,5.53
2023-02-11T00:08:50.600Z,5.65
2023-02-11T00:11:19.920Z,5.60
2023-02-11T00:13:47.658Z,4.45
2023-02-11T00:16:18.849Z,4.10
2023-02-11T00:18:46.156Z,4.53
2023-02-11T00:21:17.906Z,4.40
2023-02-11T00:23:46.632Z,4.68
2023-02-11T00:26:25.120Z,4.10
2023-02-11T00:28:52.391Z,3.88
2023-02-11T00:31:21.481Z,4.70
2023-02-11T00:33:48.886Z,4.65
2023-02-11T00:36:18.484Z,4.05
2023-02-11T00:38:46.464Z,4.32
2023-02-11T00:41:14.642Z,4.35
2023-02-11T00:43:41.835Z,4.97
2023-02-11T00:46:09.448Z,5.13
2023-02-11T00:48:36.652Z,4.97
2023-02-11T00:51:04.223Z,5.00
2023-02-11T00:53:31.729Z,3.33
2023-02-11T00:55:58.610Z,4.80
2023-02-11T00:58:25.438Z,4.03
2023-02-11T01:00:53.432Z,4.30
2023-02-11T01:06:23.230Z,4.20
2023-02-11T01:08:50.147Z,4.25
2023-02-11T01:11:19.883Z,4.85
2023-02-11T01:13:49.015Z,4.22
2023-02-11T01:16:16.272Z,5.00
2023-02-11T01:18:58.930Z,4.68
2023-02-11T01:23:52.888Z,4.97
2023-02-11T01:26:19.698Z,5.47
2023-02-11T01:28:46.573Z,5.28
2023-02-11T01:31:13.733Z,6.05
2023-02-11T01:33:40.797Z,5.07
2023-02-11T01:36:08.491Z,5.53
2023-02-11T01:38:35.998Z,5.32
2023-02-11T01:41:05.719Z,4.85
2023-02-11T01:43:38.720Z,4.57
2023-02-11T01:46:21.289Z,4.15
2023-02-11T01:48:52.625Z,4.18
2023-02-11T01:51:24.998Z,4.20
2023-02-11T01:54:11.573Z,4.38
2023-02-11T01:57:01.277Z,3.78
2023-02-11T01:59:34.490Z,3.60
2023-02-11T02:02:07.455Z,4.10
2023-02-11T02:04:44.241Z,4.03
2023-02-11T02:07:30.631Z,4.10
2023-02-11T02:10:13.990Z,4.25
2023-02-11T02:12:40.922Z,3.67
2023-02-11T02:15:26.563Z,3.78
2023-02-11T02:18:27.856Z,4.28
2023-02-11T02:21:06.659Z,3.50
2023-02-11T02:23:57.743Z,4.13
2023-02-11T02:26:43.250Z,3.50
2023-02-11T02:29:35.130Z,3.65
2023-02-11T02:32:39.200Z,4.30
2023-02-11T02:35:30.297Z,4.88
2023-02-11T02:38:23.421Z,4.25
2023-02-11T02:41:06.842Z,4.72
2023-02-11T02:43:34.670Z,4.03
2023-02-11T02:46:15.182Z,4.13
2023-02-11T02:48:42.976Z,4.05
2023-02-11T02:51:27.639Z,4.30
2023-02-11T02:54:00.321Z,4.22
2023-02-11T02:57:12.246Z,4.63
2023-02-11T02:59:53.954Z,4.03
2023-02-11T03:02:29.566Z,4.23
2023-02-11T03:05:05.251Z,4.40
2023-02-11T03:07:48.688Z,4.25
2023-02-11T03:10:17.809Z,4.45
2023-02-11T03:12:47.157Z,4.50
2023-02-11T03:15:14.872Z,4.18
2023-02-11T03:17:45.856Z,4.40
2023-02-11T03:20:17.653Z,4.40
2023-02-11T03:23:40.734Z,4.80
2023-02-11T03:26:30.115Z,4.47
2023-02-11T03:28:59.884Z,4.65
2023-02-11T03:31:34.256Z,4.13
2023-02-11T03:34:14.501Z,4.53
2023-02-11T03:36:59.889Z,4.82
2023-02-11T03:39:38.022Z,5.05
2023-02-11T03:42:07.905Z,3.75
2023-02-11T03:44:41.328Z,4.50
2023-02-11T03:47:10.855Z,4.47
2023-02-11T03:49:40.431Z,5.32
2023-02-11T03:52:11.283Z,5.53
2023-02-11T03:54:40.790Z,5.20
2023-02-11T03:57:07.815Z,5.47
2023-02-11T03:59:52.498Z,4.28
2023-02-11T04:02:19.858Z,7.07
2023-02-11T04:04:47.214Z,6.82
2023-02-11T04:07:13.983Z,5.75
2023-02-11T04:09:40.754Z,5.18
2023-02-11T04:12:07.833Z,4.95
2023-02-11T04:14:34.859Z,5.82
2023-02-11T04:17:01.716Z,5.80
2023-02-11T04:19:28.535Z,5.15
2023-02-11T04:21:55.372Z,5.72
2023-02-11T04:24:22.204Z,6.35
2023-02-11T04:26:49.047Z,5.82
2023-02-11T04:29:15.921Z,4.68
2023-02-11T04:31:42.765Z,5.30
2023-02-11T04:34:09.555Z,5.38
2023-02-11T04:36:36.568Z,4.75
2023-02-11T04:39:04.045Z,4.88
2023-02-11T04:41:30.816Z,5.22
2023-02-11T04:43:57.575Z,5.18
2023-02-11T04:46:24.446Z,4.28
2023-02-11T04:48:51.616Z,6.15
2023-02-11T04:51:18.567Z,6.10
2023-02-11T04:53:45.469Z,5.35
2023-02-11T04:56:12.297Z,4.05
2023-02-11T04:58:39.113Z,4.88
2023-02-11T05:01:10.547Z,5.55
2023-02-11T05:03:37.967Z,4.90
2023-02-11T05:06:05.486Z,5.78
2023-02-11T05:08:32.388Z,5.03
2023-02-11T05:10:59.540Z,4.68
2023-02-11T05:13:26.318Z,4.97
2023-02-11T05:15:53.486Z,5.43
2023-02-11T05:18:20.381Z,4.13
2023-02-11T05:20:47.223Z,4.65
2023-02-11T05:23:14.052Z,3.95
2023-02-11T05:25:40.858Z,4.82
2023-02-11T05:28:07.735Z,5.72
2023-02-11T05:30:34.492Z,6.75
2023-02-11T05:33:01.319Z,5.20
2023-02-11T05:35:28.123Z,7.38
2023-02-11T05:37:54.875Z,5.05
2023-02-11T05:40:21.660Z,4.13
2023-02-11T05:42:48.568Z,5.00
2023-02-11T05:45:15.347Z,4.38
2023-02-11T05:47:42.144Z,4.60
2023-02-11T05:50:09.149Z,5.00
2023-02-11T05:52:36.006Z,5.30
2023-02-11T05:55:03.144Z,4.72
2023-02-11T05:57:29.956Z,4.22
2023-02-11T05:59:56.888Z,4.63
2023-02-11T06:02:25.190Z,5.18
2023-02-11T06:04:52.127Z,5.07
2023-02-11T06:07:19.794Z,5.15
2023-02-11T06:09:46.605Z,5.50
2023-02-11T06:12:13.416Z,4.05
2023-02-11T06:14:40.340Z,4.40
2023-02-11T06:17:07.416Z,4.85
2023-02-11T06:19:34.438Z,4.40
2023-02-11T06:22:01.257Z,4.90
2023-02-11T06:24:51.326Z,4.95
2023-02-11T06:27:14.904Z,4.30
2023-02-11T06:29:41.796Z,5.53
2023-02-11T06:32:13.536Z,6.38
2023-02-11T06:34:50.200Z,5.72
2023-02-11T06:37:17.050Z,10.00
2023-02-11T06:39:45.282Z,5.13
2023-02-11T06:42:12.210Z,5.40
2023-02-11T06:44:39.182Z,5.93
2023-02-11T06:47:06.049Z,4.93
2023-02-11T06:49:33.140Z,6.00
2023-02-11T06:52:01.153Z,8.73
2023-02-11T06:54:27.955Z,7.55
2023-02-11T06:56:54.753Z,8.07
2023-02-11T06:59:21.565Z,8.10
2023-02-11T07:01:48.520Z,8.88
2023-02-11T07:04:15.607Z,8.70
2023-02-11T07:06:42.515Z,10.77
2023-02-11T07:09:09.424Z,12.40
2023-02-11T07:11:36.304Z,11.82
2023-02-11T07:14:06.421Z,9.75
2023-02-11T07:16:33.659Z,6.93
2023-02-11T07:19:00.537Z,7.13
2023-02-11T07:21:27.955Z,15.75
2023-02-11T07:23:54.900Z,7.60
2023-02-11T07:26:23.710Z,8.32
2023-02-11T07:28:51.730Z,7.72
2023-02-11T07:31:22.236Z,7.65
2023-02-11T07:33:49.649Z,8.02
2023-02-11T07:36:17.234Z,7.45
2023-02-11T07:38:44.349Z,7.00
2023-02-11T07:41:14.079Z,7.03
2023-02-11T07:43:41.536Z,11.68
2023-02-11T07:46:20.393Z,10.27
2023-02-11T07:48:47.980Z,9.30
2023-02-11T07:51:17.521Z,9.75
2023-02-11T07:53:44.878Z,11.77
2023-02-11T07:56:13.442Z,11.35
2023-02-11T07:58:42.267Z,10.82
2023-02-11T08:01:19.044Z,10.93
2023-02-11T08:03:46.270Z,10.70
2023-02-11T08:06:16.592Z,10.63
2023-02-11T08:08:43.720Z,14.43
2023-02-11T08:11:19.130Z,19.90
2023-02-11T08:13:46.353Z,18.83
2023-02-11T08:16:18.539Z,20.27
2023-02-11T08:18:45.475Z,19.80
2023-02-11T08:21:12.392Z,20.92
2023-02-11T08:23:41.237Z,26.90
2023-02-11T08:26:11.154Z,34.15
2023-02-11T08:28:40.197Z,41.80
2023-02-11T08:31:17.747Z,50.10
2023-02-11T08:33:45.022Z,66.50
2023-02-11T08:36:17.678Z,63.17
2023-02-11T08:38:45.384Z,66.93
2023-02-11T08:41:14.962Z,84.38
2023-02-11T08:43:42.728Z,95.07
2023-02-11T08:46:12.451Z,139.27
2023-02-11T08:48:39.422Z,180.20
2023-02-11T08:51:08.489Z,186.75
2023-02-11T08:53:36.225Z,166.18
2023-02-11T08:56:03.492Z,168.32
2023-02-11T08:58:30.506Z,158.65
2023-02-11T09:00:57.518Z,145.95
2023-02-11T09:03:24.712Z,185.88
2023-02-11T09:05:53.457Z,226.93
2023-02-11T09:08:21.265Z,198.35
2023-02-11T09:10:48.935Z,183.32
2023-02-11T09:13:16.960Z,180.68
2023-02-11T09:15:47.020Z,245.45
2023-02-11T09:18:14.621Z,258.95
2023-02-11T09:20:41.464Z,235.90
2023-02-11T09:23:08.286Z,249.55
2023-02-11T09:25:35.073Z,263.13
2023-02-11T09:28:02.179Z,239.85
2023-02-11T09:30:29.267Z,233.68
2023-02-11T09:32:56.155Z,206.60
2023-02-11T09:35:23.743Z,197.02
2023-02-11T09:37:50.617Z,181.57
2023-02-11T09:40:24.364Z,156.30
2023-02-11T09:43:04.258Z,156.65
2023-02-11T09:45:32.377Z,147.02
2023-02-11T09:48:27.305Z,149.18
2023-02-11T09:51:00.485Z,154.82
2023-02-11T09:53:29.739Z,166.18
2023-02-11T09:56:00.048Z,159.18
2023-02-11T09:58:28.077Z,152.80
2023-02-11T10:01:04.119Z,139.65
2023-02-11T10:03:36.668Z,158.55
2023-02-11T10:06:35.721Z,191.70
2023-02-11T10:09:26.957Z,196.57
2023-02-11T10:12:30.461Z,188.52
2023-02-11T10:15:09.951Z,161.60
2023-02-11T10:17:54.751Z,146.60
2023-02-11T10:20:38.936Z,143.93
2023-02-11T10:23:25.832Z,134.23
2023-02-11T10:25:54.774Z,122.20
2023-02-11T10:28:25.210Z,111.63
2023-02-11T10:30:55.614Z,104.18
2023-02-11T10:33:32.453Z,102.45
2023-02-11T10:35:59.698Z,99.75
2023-02-11T10:38:27.806Z,103.05
2023-02-11T10:40:54.647Z,98.32
2023-02-11T10:43:26.313Z,92.38
2023-02-11T10:45:55.130Z,91.63
2023-02-11T10:48:40.178Z,89.00
2023-02-11T10:51:33.673Z,87.80
2023-02-11T10:54:19.308Z,85.70
2023-02-11T10:56:53.452Z,84.15
2023-02-11T10:59:40.076Z,83.35
2023-02-11T11:02:20.896Z,79.28
2023-02-11T11:04:48.685Z,74.25
2023-02-11T11:07:18.251Z,70.00
2023-02-11T11:10:06.652Z,64.35
2023-02-11T11:12:46.506Z,65.13
2023-02-11T11:15:28.143Z,67.95
2023-02-11T11:18:23.253Z,66.13
2023-02-11T11:21:02.187Z,65.38
2023-02-11T11:23:30.722Z,56.80
2023-02-11T11:26:12.415Z,52.38
2023-02-11T11:28:50.364Z,52.60
2023-02-11T11:31:30.594Z,52.13
2023-02-11T11:34:00.073Z,45.65
2023-02-11T11:36:39.653Z,40.60
2023-02-11T11:39:23.784Z,38.78
2023-02-11T11:41:56.731Z,32.67
2023-02-11T11:44:26.682Z,33.35
2023-02-11T11:47:26.322Z,33.80
2023-02-11T11:49:56.931Z,33.30
2023-02-11T11:52:42.159Z,34.00
2023-02-11T11:55:20.991Z,33.13
2023-02-11T11:57:48.777Z,38.22
2023-02-11T12:00:17.717Z,36.38
2023-02-11T12:03:08.846Z,34.42
2023-02-11T12:06:07.784Z,34.50
2023-02-11T12:08:49.544Z,32.67
2023-02-11T12:11:51.697Z,31.73
2023-02-11T12:14:51.880Z,32.05
2023-02-11T12:17:42.607Z,30.33
2023-02-11T12:20:43.620Z,29.58
2023-02-11T12:23:31.437Z,29.38
2023-02-11T12:26:10.059Z,31.05
2023-02-11T12:28:51.801Z,32.17
2023-02-11T12:32:00.955Z,33.15
2023-02-11T12:34:39.640Z,34.35
2023-02-11T12:37:19.065Z,33.45
2023-02-11T12:39:54.020Z,31.30
2023-02-11T12:42:42.271Z,32.92
2023-02-11T12:45:16.145Z,33.00
2023-02-11T12:48:04.499Z,34.95
2023-02-11T12:50:58.866Z,38.83
2023-02-11T12:53:40.584Z,36.83
2023-02-11T12:56:24.006Z,35.45
2023-02-11T12:58:54.000Z,33.03
2023-02-11T13:01:38.953Z,29.75
2023-02-11T13:04:05.809Z,30.88
2023-02-11T13:06:50.987Z,28.70
2023-02-11T13:09:25.274Z,30.25
2023-02-11T13:11:55.871Z,30.35
2023-02-11T13:14:29.148Z,28.60
2023-02-11T13:16:58.288Z,28.52
2023-02-11T13:19:28.382Z,25.73
2023-02-11T13:22:26.913Z,24.95
2023-02-11T13:25:03.935Z,23.33
2023-02-11T13:27:58.800Z,20.10
2023-02-11T13:30:34.696Z,22.45
2023-02-11T13:33:01.569Z,22.27
2023-02-11T13:35:34.290Z,22.85
2023-02-11T13:38:22.370Z,22.25
2023-02-11T13:41:06.784Z,19.42
2023-02-11T13:43:36.212Z,20.98
2023-02-11T13:46:10.148Z,20.65
2023-02-11T13:48:58.691Z,20.00
2023-02-11T13:51:42.855Z,20.83
2023-02-11T13:54:22.554Z,19.90
2023-02-11T13:57:37.325Z,21.30
2023-02-11T14:00:36.443Z,21.20
2023-02-11T14:03:30.901Z,19.98
2023-02-11T14:06:30.151Z,20.58
2023-02-11T14:09:09.404Z,20.25
2023-02-11T14:11:42.297Z,20.52
2023-02-11T14:14:23.886Z,19.83
2023-02-11T14:17:00.238Z,19.58
2023-02-11T14:19:43.587Z,19.95
2023-02-11T14:22:31.669Z,20.60
2023-02-11T14:24:58.660Z,20.77
2023-02-11T14:27:42.501Z,18.42
2023-02-11T14:30:24.069Z,19.63
2023-02-11T14:33:18.772Z,17.60
2023-02-11T14:36:10.528Z,17.85
2023-02-11T14:39:02.161Z,18.10
2023-02-11T14:41:44.122Z,18.42
2023-02-11T14:44:24.563Z,20.02
2023-02-11T14:46:54.012Z,18.73
2023-02-11T14:49:50.608Z,19.00
2023-02-11T14:52:31.075Z,19.13
2023-02-11T14:55:29.121Z,17.85
2023-02-11T14:58:19.279Z,21.33
2023-02-11T15:00:49.141Z,19.42
2023-02-11T15:03:38.279Z,18.52
2023-02-11T15:06:24.356Z,18.15
2023-02-11T15:09:01.522Z,18.75
2023-02-11T15:11:35.199Z,15.98
2023-02-11T15:14:09.922Z,16.42
2023-02-11T15:16:42.440Z,16.73
2023-02-11T15:19:25.790Z,14.85
2023-02-11T15:21:53.657Z,16.27
2023-02-11T15:24:25.244Z,16.75
2023-02-11T15:27:14.582Z,17.42
2023-02-11T15:29:45.000Z,17.38
2023-02-11T15:32:22.220Z,16.63
2023-02-11T15:34:51.037Z,16.70
2023-02-11T15:37:29.817Z,17.80
2023-02-11T15:40:15.255Z,19.33
2023-02-11T15:42:58.605Z,18.50
2023-02-11T15:45:33.987Z,18.63
2023-02-11T15:48:18.595Z,19.02
2023-02-11T15:50:58.707Z,21.52
2023-02-11T15:53:28.075Z,22.63
2023-02-11T15:56:10.089Z,23.95
2023-02-11T15:58:38.349Z,26.02
2023-02-11T16:01:05.573Z,25.23
2023-02-11T16:03:33.129Z,24.95
2023-02-11T16:06:23.673Z,25.40
2023-02-11T16:09:01.366Z,25.50
2023-02-11T16:11:38.315Z,24.67
2023-02-11T16:14:23.372Z,25.58
2023-02-11T16:16:56.248Z,24.33
2023-02-11T16:19:25.890Z,23.38
2023-02-11T16:21:55.026Z,22.25
2023-02-11T16:24:33.496Z,22.27
2023-02-11T16:27:02.526Z,20.98
2023-02-11T16:29:31.700Z,22.50
2023-02-11T16:32:17.996Z,23.00
2023-02-11T16:34:44.831Z,22.60
2023-02-11T16:37:11.804Z,24.65
2023-02-11T16:39:38.678Z,24.92
2023-02-11T16:42:07.729Z,30.23
2023-02-11T16:44:35.374Z,30.55
2023-02-11T16:47:03.956Z,29.00
2023-02-11T16:49:34.336Z,30.75
2023-02-11T16:52:05.592Z,29.42
2023-02-11T16:54:33.392Z,28.83
2023-02-11T16:57:00.554Z,29.60
2023-02-11T16:59:27.382Z,36.33
2023-02-11T17:01:55.044Z,29.13
2023-02-11T17:04:26.510Z,29.67
2023-02-11T17:06:53.455Z,28.02
2023-02-11T17:09:28.973Z,28.42
2023-02-11T17:11:57.150Z,27.02
2023-02-11T17:14:24.063Z,24.50
2023-02-11T17:16:51.277Z,26.23
2023-02-11T17:19:20.880Z,24.98
2023-02-11T17:21:50.266Z,24.77
2023-02-11T17:24:17.489Z,24.88
2023-02-11T17:26:45.602Z,26.50
2023-02-11T17:29:18.272Z,24.60
2023-02-11T17:31:45.332Z,26.50
2023-02-11T17:34:12.416Z,26.20
2023-02-11T17:36:41.368Z,27.10
2023-02-11T17:39:08.618Z,27.23
2023-02-11T17:41:39.246Z,28.02
2023-02-11T17:44:07.260Z,28.25
2023-02-11T17:46:37.278Z,30.30
2023-02-11T17:49:04.592Z,30.42
2023-02-11T17:51:34.669Z,28.70
2023-02-11T17:54:04.975Z,29.10
2023-02-11T17:56:33.125Z,28.33
2023-02-11T17:59:02.449Z,26.90
2023-02-11T18:01:30.985Z,24.42
2023-02-11T18:03:57.825Z,25.88
2023-02-11T18:06:25.472Z,27.05
2023-02-11T18:08:52.587Z,29.10
2023-02-11T18:11:19.542Z,26.52
2023-02-11T18:13:51.365Z,25.52
2023-02-11T18:16:18.308Z,30.73
2023-02-11T18:18:45.129Z,33.78
2023-02-11T18:21:18.196Z,33.78
2023-02-11T18:23:45.764Z,30.00
2023-02-11T18:26:14.189Z,30.05
2023-02-11T18:28:43.283Z,26.27
2023-02-11T18:31:13.924Z,28.10
2023-02-11T18:33:44.010Z,23.20
2023-02-11T18:36:13.739Z,28.70
2023-02-11T18:38:41.531Z,28.63
2023-02-11T18:41:08.964Z,26.52
2023-02-11T18:43:36.466Z,26.42
2023-02-11T18:46:08.509Z,27.20
2023-02-11T18:48:35.435Z,25.73
2023-02-11T18:51:02.268Z,25.10
2023-02-11T18:53:29.104Z,27.65
2023-02-11T18:55:55.926Z,26.80
2023-02-11T18:58:22.816Z,28.38
2023-02-11T19:00:49.905Z,28.35
2023-02-11T19:03:17.090Z,30.92
2023-02-11T19:05:44.883Z,29.90
2023-02-11T19:08:12.347Z,30.33
2023-02-11T19:10:43.903Z,29.92
2023-02-11T19:13:11.366Z,24.77
2023-02-11T19:15:42.246Z,28.90
2023-02-11T19:18:09.327Z,30.85
2023-02-11T19:20:38.882Z,33.38
2023-02-11T19:23:05.788Z,35.10
2023-02-11T19:25:33.258Z,35.83
2023-02-11T19:28:00.351Z,36.97
2023-02-11T19:30:27.677Z,32.78
2023-02-11T19:32:57.118Z,34.00
2023-02-11T19:35:24.973Z,25.80
2023-02-11T19:37:51.829Z,21.75
2023-02-11T19:40:19.257Z,25.05
2023-02-11T19:42:46.060Z,26.20
2023-02-11T19:45:13.104Z,27.15
2023-02-11T19:47:39.865Z,26.02
2023-02-11T19:50:07.421Z,25.73
2023-02-11T19:52:34.343Z,26.92
2023-02-11T19:55:01.105Z,27.65
2023-02-11T19:57:27.905Z,27.42
2023-02-11T19:59:56.916Z,26.10
2023-02-11T20:02:23.825Z,25.05
2023-02-11T20:04:50.589Z,24.10
2023-02-11T20:07:17.389Z,23.40
2023-02-11T20:09:44.354Z,26.50
2023-02-11T20:12:12.087Z,29.75
2023-02-11T20:14:38.978Z,23.98
2023-02-11T20:17:05.738Z,25.77
2023-02-11T20:19:32.644Z,25.48
2023-02-11T20:21:59.378Z,25.20
2023-02-11T20:24:26.667Z,24.95
2023-02-11T20:26:56.508Z,24.02
2023-02-11T20:29:24.937Z,23.90
2023-02-11T20:31:51.823Z,22.95
2023-02-11T20:34:18.950Z,24.13
2023-02-11T20:36:52.082Z,22.08
2023-02-11T20:39:21.851Z,21.13
2023-02-11T20:41:49.387Z,22.70
2023-02-11T20:44:16.501Z,25.67
2023-02-11T20:46:48.209Z,26.88
2023-02-11T20:49:18.935Z,24.10
2023-02-11T20:51:46.416Z,24.63
2023-02-11T20:54:15.768Z,20.45
2023-02-11T20:56:43.706Z,20.80
2023-02-11T20:59:13.772Z,21.33
2023-02-11T21:01:43.228Z,20.40
2023-02-11T21:04:19.282Z,20.98
2023-02-11T21:06:54.974Z,21.15
2023-02-11T21:09:26.135Z,21.70
2023-02-11T21:11:54.135Z,19.90
2023-02-11T21:14:22.344Z,19.67
2023-02-11T21:16:49.570Z,20.23
2023-02-11T21:19:16.722Z,21.23
2023-02-11T21:21:43.593Z,20.58
2023-02-11T21:24:10.528Z,22.30
2023-02-11T21:26:37.966Z,20.70
2023-02-11T21:29:06.779Z,19.10
2023-02-11T21:31:35.078Z,17.85
2023-02-11T21:34:02.209Z,18.70
2023-02-11T21:36:29.941Z,19.92
2023-02-11T21:38:56.757Z,18.00
2023-02-11T21:41:24.864Z,19.38
2023-02-11T21:43:52.510Z,18.65
2023-02-11T21:46:20.619Z,18.70
2023-02-11T21:48:48.220Z,17.00
2023-02-11T21:51:18.168Z,20.10
2023-02-11T21:53:45.628Z,19.38
2023-02-11T21:56:18.216Z,20.85
2023-02-11T21:58:46.087Z,19.63
2023-02-11T22:01:22.080Z,17.02
2023-02-11T22:03:49.173Z,17.17
2023-02-11T22:06:21.853Z,17.35
2023-02-11T22:08:50.052Z,17.25
2023-02-11T22:11:16.873Z,19.00
2023-02-11T22:13:43.791Z,19.30
2023-02-11T22:16:13.508Z,19.77
2023-02-11T22:18:40.883Z,20.38
2023-02-11T22:21:10.162Z,20.05
2023-02-11T22:23:38.075Z,18.92
2023-02-11T22:26:13.570Z,19.27
2023-02-11T22:28:40.954Z,21.65
2023-02-11T22:31:14.892Z,21.77
2023-02-11T22:33:41.782Z,22.48
2023-02-11T22:36:15.397Z,44.58
2023-02-11T22:38:42.270Z,38.85
2023-02-11T22:41:10.914Z,46.25
2023-02-11T22:43:38.218Z,26.02
2023-02-11T22:46:06.890Z,23.15
2023-02-11T22:48:35.112Z,23.77
2023-02-11T22:51:10.510Z,20.65
2023-02-11T22:53:37.331Z,20.55
2023-02-11T22:56:07.041Z,20.25
2023-02-11T22:58:35.118Z,20.35
2023-02-11T23:01:02.784Z,21.27
2023-02-11T23:03:29.665Z,21.55
2023-02-11T23:05:58.576Z,20.48
2023-02-11T23:08:25.986Z,20.05
2023-02-11T23:10:53.159Z,18.27
2023-02-11T23:13:20.246Z,18.27
2023-02-11T23:15:48.095Z,19.42
2023-02-11T23:18:14.939Z,18.65
2023-02-11T23:20:43.703Z,18.15
2023-02-11T23:23:10.798Z,17.48
2023-02-11T23:25:43.426Z,19.80
2023-02-11T23:28:11.187Z,22.48
2023-02-11T23:30:38.463Z,21.05
2023-02-11T23:33:05.421Z,19.10
2023-02-11T23:35:32.835Z,19.50
2023-02-11T23:37:59.613Z,20.02
2023-02-11T23:40:26.505Z,20.98
2023-02-11T23:42:53.316Z,18.67
2023-02-11T23:45:20.283Z,19.95
2023-02-11T23:47:47.652Z,18.02
2023-02-11T23:50:14.893Z,18.25
2023-02-11T23:52:41.841Z,18.95
2023-02-11T23:55:09.075Z,18.50
2023-02-11T23:57:35.997Z,21.75
